createdAt,value
2019-03-24T13:12:12.361Z,18.90
2019-03-24T13:14:45.849Z,19.00
2019-03-24T13:19:02.567Z,19.30
2019-03-24T13:21:36.081Z,20.40
2019-03-24T13:24:09.572Z,20.80
2019-03-24T13:26:43.043Z,21.00
2019-03-24T13:47:43.654Z,14.10
2019-03-24T13:50:17.404Z,13.50
2019-03-24T13:52:51.089Z,13.60
2019-03-24T13:55:24.902Z,14.50
2019-03-24T13:57:58.595Z,15.10
2019-03-24T14:00:32.326Z,14.80
2019-03-24T14:03:05.958Z,14.90
2019-03-24T14:05:39.766Z,15.00
2019-03-24T14:08:13.484Z,15.20
2019-03-24T14:10:47.211Z,15.30
2019-03-24T14:13:20.849Z,14.90
2019-03-24T14:15:54.584Z,15.00
2019-03-24T14:18:28.311Z,14.60
2019-03-24T14:21:01.972Z,13.90
2019-03-24T14:23:35.667Z,13.60
2019-03-24T14:26:09.324Z,13.40
2019-03-24T14:28:43.027Z,13.70
2019-03-24T14:31:16.700Z,13.80
2019-03-24T14:33:50.332Z,13.30
2019-03-24T14:36:24.008Z,12.60
2019-03-24T14:38:57.706Z,12.20
2019-03-24T14:41:31.460Z,12.00
2019-03-24T14:44:05.215Z,12.00
2019-03-24T14:46:38.916Z,12.10
2019-03-24T14:49:12.649Z,11.80
2019-03-24T14:51:46.308Z,11.50
2019-03-24T14:54:19.785Z,11.50
2019-03-24T14:56:53.729Z,11.50
2019-03-24T14:59:27.465Z,11.40
2019-03-24T15:02:01.145Z,11.50
2019-03-24T15:04:34.910Z,11.40
2019-03-24T15:07:08.572Z,11.20
2019-03-24T15:09:42.233Z,11.10
2019-03-24T15:12:16.928Z,11.20
2019-03-24T15:14:50.582Z,11.40
2019-03-24T15:17:24.211Z,11.30
2019-03-24T15:19:57.872Z,11.30
2019-03-24T15:22:31.544Z,11.10
2019-03-24T15:25:06.370Z,10.90
2019-03-24T15:27:40.092Z,10.90
2019-03-24T15:30:14.252Z,10.70
2019-03-24T15:32:48.019Z,10.40
2019-03-24T15:35:21.744Z,10.40
2019-03-24T15:38:07.770Z,10.40
2019-03-24T15:40:31.017Z,10.30
2019-03-24T15:43:04.684Z,10.30
2019-03-24T15:45:38.425Z,10.20
2019-03-24T15:48:12.121Z,10.20
2019-03-24T15:50:45.700Z,9.90
2019-03-24T15:53:19.314Z,9.80
2019-03-24T15:55:52.997Z,9.70
2019-03-24T15:58:26.611Z,9.60
2019-03-24T16:01:00.259Z,9.50
2019-03-24T16:03:33.892Z,9.60
2019-03-24T16:06:07.554Z,9.60
2019-03-24T16:08:41.273Z,9.50
2019-03-24T16:11:16.168Z,9.40
2019-03-24T16:13:50.027Z,9.30
2019-03-24T16:16:23.689Z,9.20
2019-03-24T16:18:57.313Z,9.20
2019-03-24T16:21:31.370Z,9.20
2019-03-24T16:24:05.064Z,9.10
2019-03-24T16:26:38.701Z,9.00
2019-03-24T16:29:12.312Z,9.00
2019-03-24T16:31:45.972Z,8.90
2019-03-24T16:34:19.667Z,8.80
2019-03-24T16:36:53.336Z,8.80
2019-03-24T16:39:26.951Z,8.80
2019-03-24T16:42:00.604Z,8.70
2019-03-24T16:44:34.220Z,8.60
2019-03-24T16:47:07.874Z,8.50
2019-03-24T16:49:41.615Z,8.40
2019-03-24T16:52:15.291Z,8.20
2019-03-24T16:54:48.827Z,8.10
2019-03-24T16:57:23.127Z,7.90
2019-03-24T16:59:56.712Z,7.80
2019-03-24T17:02:30.357Z,7.60
2019-03-24T17:05:07.567Z,7.50
2019-03-24T17:07:41.221Z,7.50
2019-03-24T17:10:14.827Z,7.40
2019-03-24T17:12:48.483Z,7.30
2019-03-24T17:15:22.171Z,7.20
2019-03-24T17:17:56.519Z,7.10
2019-03-24T17:20:30.215Z,7.00
2019-03-24T17:23:04.136Z,6.90
2019-03-24T17:25:37.753Z,6.80
2019-03-24T17:28:11.478Z,6.70
2019-03-24T17:30:45.092Z,6.60
2019-03-24T17:33:18.815Z,6.50
2019-03-24T17:35:52.447Z,6.40
2019-03-24T17:38:26.165Z,6.40
2019-03-24T17:40:59.792Z,6.30
2019-03-24T17:43:33.626Z,6.20
2019-03-24T17:46:07.316Z,6.10
2019-03-24T17:48:40.867Z,6.00
2019-03-24T17:51:14.593Z,5.90
2019-03-24T17:53:48.138Z,5.90
2019-03-24T17:56:21.883Z,5.80
2019-03-24T17:58:55.504Z,5.70
2019-03-24T18:01:29.153Z,5.70
2019-03-24T18:04:02.861Z,5.60
2019-03-24T18:06:36.527Z,5.50
2019-03-24T18:09:10.149Z,5.50
2019-03-24T18:11:43.875Z,5.40
2019-03-24T18:14:17.567Z,5.30
2019-03-24T18:16:51.143Z,5.20
2019-03-24T18:19:24.805Z,5.20
2019-03-24T18:21:58.519Z,5.10
2019-03-24T18:24:32.211Z,5.10
2019-03-24T18:27:05.818Z,5.10
2019-03-24T18:29:39.446Z,5.00
2019-03-24T18:32:13.160Z,5.00
2019-03-24T18:34:46.780Z,5.00
2019-03-24T18:37:20.512Z,4.90
2019-03-24T18:39:54.206Z,4.80
2019-03-24T18:42:27.863Z,4.80
2019-03-24T18:45:01.479Z,4.70
2019-03-24T18:47:35.134Z,4.70
2019-03-24T18:50:09.849Z,4.60
2019-03-24T18:52:43.508Z,4.60
2019-03-24T18:55:17.157Z,4.50
2019-03-24T18:57:51.278Z,4.40
2019-03-24T19:00:24.934Z,4.40
2019-03-24T19:02:58.669Z,4.40
2019-03-24T19:05:32.361Z,4.30
2019-03-24T19:08:06.085Z,4.30
2019-03-24T19:10:39.777Z,4.20
2019-03-24T19:13:13.589Z,4.20
2019-03-24T19:15:47.288Z,4.10
2019-03-24T19:20:51.345Z,4.00
2019-03-24T19:23:24.993Z,3.90
2019-03-24T19:25:58.607Z,3.90
2019-03-24T19:28:32.264Z,3.90
2019-03-24T19:31:06.340Z,3.80
2019-03-24T19:33:40.426Z,3.90
2019-03-24T19:36:14.108Z,3.80
2019-03-24T19:38:47.988Z,3.80
2019-03-24T19:41:21.695Z,3.90
2019-03-24T19:43:55.284Z,3.90
2019-03-24T19:46:29.015Z,3.90
2019-03-24T19:49:02.646Z,3.80
2019-03-24T19:51:36.249Z,3.70
2019-03-24T19:54:09.975Z,3.70
2019-03-24T19:56:43.527Z,3.60
2019-03-24T19:59:17.259Z,3.60
2019-03-24T20:01:50.878Z,3.50
2019-03-24T20:04:24.528Z,3.60
2019-03-24T20:06:58.226Z,3.60
2019-03-24T20:09:31.910Z,3.60
2019-03-24T20:12:05.611Z,3.50
2019-03-24T20:14:39.167Z,3.50
2019-03-24T20:17:12.822Z,3.40
2019-03-24T20:19:46.447Z,3.40
2019-03-24T20:22:19.963Z,3.40
2019-03-24T20:24:53.588Z,3.40
2019-03-24T20:27:27.341Z,3.40
2019-03-24T20:30:00.883Z,3.50
2019-03-24T20:32:34.476Z,3.40
2019-03-24T20:35:09.938Z,3.40
2019-03-24T20:37:43.530Z,3.40
2019-03-24T20:40:17.235Z,3.30
2019-03-24T20:42:50.901Z,3.30
2019-03-24T20:45:24.452Z,3.30
2019-03-24T20:47:58.119Z,3.30
2019-03-24T20:50:31.676Z,3.30
2019-03-24T20:53:17.318Z,3.30
2019-03-24T20:55:40.743Z,3.30
2019-03-24T20:58:14.324Z,3.20
2019-03-24T21:00:48.021Z,3.20
2019-03-24T21:03:21.779Z,3.10
2019-03-24T21:05:55.400Z,3.10
2019-03-24T21:08:28.994Z,3.00
2019-03-24T21:11:02.538Z,2.90
2019-03-24T21:13:36.203Z,2.80
2019-03-24T21:16:09.753Z,2.80
2019-03-24T21:18:43.483Z,2.70
2019-03-24T21:21:17.321Z,2.70
2019-03-24T21:23:50.988Z,2.60
2019-03-24T21:26:24.537Z,2.60
2019-03-24T21:28:58.275Z,2.60
2019-03-24T21:31:31.827Z,2.60
2019-03-24T21:34:05.401Z,2.60
2019-03-24T21:36:39.012Z,2.60
2019-03-24T21:39:12.747Z,2.70
2019-03-24T21:41:46.373Z,2.70
2019-03-24T21:44:19.946Z,2.70
2019-03-24T21:46:53.574Z,2.60
2019-03-24T21:49:27.321Z,2.60
2019-03-24T21:52:00.877Z,2.60
2019-03-24T21:54:34.548Z,2.60
2019-03-24T21:57:08.212Z,2.60
2019-03-24T21:59:41.772Z,2.60
2019-03-24T22:02:15.413Z,2.50
2019-03-24T22:04:49.124Z,2.50
2019-03-24T22:07:22.747Z,2.50
2019-03-24T22:09:56.483Z,2.40
2019-03-24T22:12:30.100Z,2.40
2019-03-24T22:15:04.880Z,2.30
2019-03-24T22:17:38.434Z,2.30
2019-03-24T22:20:12.751Z,2.30
2019-03-24T22:22:46.299Z,2.30
2019-03-24T22:25:19.807Z,2.40
2019-03-24T22:27:53.426Z,2.40
2019-03-24T22:30:29.210Z,2.40
2019-03-24T22:33:02.471Z,2.40
2019-03-24T22:35:36.034Z,2.40
2019-03-24T22:38:09.692Z,2.40
2019-03-24T22:40:43.245Z,2.40
2019-03-24T22:43:16.913Z,2.40
2019-03-24T22:45:50.400Z,2.40
2019-03-24T22:48:24.006Z,2.40
2019-03-24T22:50:57.553Z,2.40
2019-03-24T22:53:31.151Z,2.40
2019-03-24T22:56:04.707Z,2.40
2019-03-24T22:58:38.385Z,2.40
2019-03-24T23:01:12.873Z,2.40
2019-03-24T23:03:46.603Z,2.40
2019-03-24T23:06:20.220Z,2.50
2019-03-24T23:08:53.873Z,2.50
2019-03-24T23:11:27.495Z,2.60
2019-03-24T23:14:01.156Z,2.60
2019-03-24T23:16:34.710Z,2.70
2019-03-24T23:19:08.312Z,2.70
2019-03-24T23:21:41.935Z,2.70
2019-03-24T23:24:16.093Z,2.70
2019-03-24T23:26:50.001Z,2.70
2019-03-24T23:29:23.628Z,2.70
2019-03-24T23:31:57.294Z,2.70
2019-03-24T23:34:30.860Z,2.70
2019-03-24T23:37:04.508Z,2.70
2019-03-24T23:39:37.993Z,2.60
2019-03-24T23:42:11.654Z,2.70
2019-03-24T23:44:45.141Z,2.80
2019-03-24T23:47:18.883Z,2.90
2019-03-24T23:49:52.395Z,2.90
2019-03-24T23:52:25.971Z,3.00
2019-03-24T23:54:59.621Z,3.10
2019-03-24T23:57:33.172Z,3.10
